Time;durP1;ratioP1;P1;durP2;ratioP2;P2;SDS_P1;SDS_P2;PMS_P1;PMS_P2;Temp;Humidity;BMP_temperature;BMP_pressure;BME280_temperature;BME280_humidity;BME280_pressure;Samples;Min_cycle;Max_cycle;Signal;HPM_P1;HPM_P2
2023/10/30 00:01:29;;;;;;;;;;;19.60;1.00;;;;;;4954258;29;20383;-52
2023/10/30 00:03:55;;;;;;;;;;;19.60;1.00;;;;;;4953877;29;19926;-55
2023/10/30 00:06:22;;;;;;;;;;;19.50;1.00;;;;;;4954019;29;20001;-55
2023/10/30 00:08:49;;;;;;;;;;;19.50;1.00;;;;;;4953804;29;19968;-54
2023/10/30 00:11:16;;;;;;;;;;;19.50;1.00;;;;;;4954034;29;19939;-55
2023/10/30 00:13:43;;;;;;;;;;;19.50;1.00;;;;;;4953815;29;19926;-55
2023/10/30 00:16:10;;;;;;;;;;;19.50;1.00;;;;;;4954129;29;20349;-55
2023/10/30 00:18:39;;;;;;;;;;;19.50;1.00;;;;;;4956103;28;19926;-52
2023/10/30 00:21:05;;;;;;;;;;;19.50;1.00;;;;;;4958238;29;19930;-55
2023/10/30 00:23:32;;;;;;;;;;;19.50;1.00;;;;;;4957470;29;19963;-55
2023/10/30 00:25:59;;;;;;;;;;;19.40;1.00;;;;;;4940575;29;20025;-54
2023/10/30 00:28:27;;;;;;;;;;;19.40;1.00;;;;;;4957652;29;19926;-55
2023/10/30 00:30:54;;;;;;;;;;;19.40;1.00;;;;;;4940327;29;19974;-55
2023/10/30 00:33:21;;;;;;;;;;;19.40;1.00;;;;;;4957539;28;19934;-55
2023/10/30 00:35:48;;;;;;;;;;;19.40;1.00;;;;;;4957272;29;19926;-55
2023/10/30 00:38:15;;;;;;;;;;;19.30;1.00;;;;;;4957352;28;19974;-51
2023/10/30 00:40:41;;;;;;;;;;;19.30;1.00;;;;;;4957289;29;19934;-54
2023/10/30 00:43:08;;;;;;;;;;;19.30;1.00;;;;;;4940123;29;20299;-50
2023/10/30 00:45:35;;;;;;;;;;;19.30;1.00;;;;;;4939930;29;19926;-55
2023/10/30 00:48:01;;;;;;;;;;;19.30;1.00;;;;;;4939936;29;19927;-54
2023/10/30 00:50:28;;;;;;;;;;;19.30;1.00;;;;;;4957543;29;19926;-55
2023/10/30 00:52:55;;;;;;;;;;;19.20;1.00;;;;;;4939988;29;19926;-50
2023/10/30 00:55:21;;;;;;;;;;;19.20;1.00;;;;;;4940008;29;19948;-54
2023/10/30 00:57:48;;;;;;;;;;;19.20;1.00;;;;;;4940017;29;19927;-54
2023/10/30 01:00:15;;;;;;;;;;;19.20;1.00;;;;;;4939722;29;19962;-55
2023/10/30 01:02:44;;;;;;;;;;;19.20;1.00;;;;;;4939613;29;20360;-54
2023/10/30 01:05:11;;;;;;;;;;;19.20;1.00;;;;;;4939642;29;19927;-55
2023/10/30 01:07:38;;;;;;;;;;;19.20;1.00;;;;;;4957077;29;19934;-55
2023/10/30 01:10:06;;;;;;;;;;;19.20;1.00;;;;;;4956754;29;19933;-55
2023/10/30 01:12:34;;;;;;;;;;;19.20;1.00;;;;;;4956889;29;19934;-55
2023/10/30 01:15:01;;;;;;;;;;;19.10;1.00;;;;;;4939175;29;19930;-55
2023/10/30 01:17:28;;;;;;;;;;;19.10;1.00;;;;;;4939708;29;19969;-54
2023/10/30 01:19:55;;;;;;;;;;;19.10;1.00;;;;;;4939261;29;20018;-55
2023/10/30 01:22:21;;;;;;;;;;;19.10;1.00;;;;;;4956763;29;20423;-52
2023/10/30 01:24:48;;;;;;;;;;;19.10;1.00;;;;;;4939369;29;20021;-53
2023/10/30 01:27:15;;;;;;;;;;;19.10;1.00;;;;;;4956613;29;20428;-54
2023/10/30 01:29:41;;;;;;;;;;;19.10;1.00;;;;;;4938947;28;19930;-53
2023/10/30 01:32:08;;;;;;;;;;;19.00;1.00;;;;;;4939494;29;19989;-53
2023/10/30 01:34:36;;;;;;;;;;;19.00;1.00;;;;;;4956580;29;19973;-55
2023/10/30 01:37:03;;;;;;;;;;;19.00;1.00;;;;;;4939455;29;20292;-54
2023/10/30 01:39:29;;;;;;;;;;;19.00;1.00;;;;;;4938991;29;20017;-55
2023/10/30 01:41:56;;;;;;;;;;;19.00;1.00;;;;;;4938920;28;20399;-54
2023/10/30 01:44:23;;;;;;;;;;;19.00;1.00;;;;;;4938801;29;19932;-54
2023/10/30 01:46:50;;;;;;;;;;;19.00;1.00;;;;;;4938955;29;19926;-54
2023/10/30 01:49:16;;;;;;;;;;;19.00;1.00;;;;;;4938908;29;20385;-51
2023/10/30 01:51:43;;;;;;;;;;;19.00;1.00;;;;;;4956102;29;20053;-55
2023/10/30 01:54:10;;;;;;;;;;;19.00;1.00;;;;;;4938584;29;20017;-55
2023/10/30 01:56:39;;;;;;;;;;;19.00;1.00;;;;;;4938763;29;20021;-55
2023/10/30 01:59:07;;;;;;;;;;;19.00;1.00;;;;;;4938673;29;19934;-53
2023/10/30 02:01:34;;;;;;;;;;;18.90;1.00;;;;;;4938762;29;20001;-55
2023/10/30 02:04:01;;;;;;;;;;;18.90;1.00;;;;;;4938544;29;19957;-51
2023/10/30 02:06:28;;;;;;;;;;;18.90;1.00;;;;;;4938783;29;19930;-55
2023/10/30 02:08:55;;;;;;;;;;;18.90;1.00;;;;;;4938592;29;19927;-55
2023/10/30 02:11:22;;;;;;;;;;;18.90;1.00;;;;;;4938307;29;19927;-55
2023/10/30 02:13:55;;;;;;;;;;;18.90;1.00;;;;;;4938474;29;20239;-51
2023/10/30 02:16:23;;;;;;;;;;;18.90;1.00;;;;;;4938622;29;19926;-55
2023/10/30 02:18:50;;;;;;;;;;;18.80;1.00;;;;;;4938582;29;19934;-54
2023/10/30 02:21:17;;;;;;;;;;;18.80;1.00;;;;;;4955434;28;19927;-55
2023/10/30 02:23:44;;;;;;;;;;;18.80;1.00;;;;;;4955329;29;19930;-54
2023/10/30 02:26:10;;;;;;;;;;;18.80;1.00;;;;;;4955485;29;20451;-54
2023/10/30 02:28:38;;;;;;;;;;;18.80;1.00;;;;;;4938249;29;19926;-55
2023/10/30 02:31:04;;;;;;;;;;;18.80;1.00;;;;;;4938021;29;19934;-52
2023/10/30 02:33:31;;;;;;;;;;;18.80;1.00;;;;;;4955437;29;20016;-51
2023/10/30 02:35:58;;;;;;;;;;;18.80;1.00;;;;;;4938095;29;19981;-54
2023/10/30 02:38:25;;;;;;;;;;;18.80;1.00;;;;;;4955205;28;20020;-50
2023/10/30 02:40:51;;;;;;;;;;;18.80;1.00;;;;;;4937155;29;20344;-55
2023/10/30 02:43:18;;;;;;;;;;;18.80;1.00;;;;;;4937923;29;19933;-55
2023/10/30 02:45:45;;;;;;;;;;;18.80;1.00;;;;;;4937909;29;20440;-54
2023/10/30 02:48:12;;;;;;;;;;;18.70;1.00;;;;;;4937890;29;19970;-54
2023/10/30 02:50:38;;;;;;;;;;;18.70;1.00;;;;;;4937841;29;19930;-54
2023/10/30 02:53:05;;;;;;;;;;;18.70;1.00;;;;;;4937796;29;19927;-55
2023/10/30 02:55:32;;;;;;;;;;;18.70;1.00;;;;;;4937712;29;19927;-51
2023/10/30 02:57:58;;;;;;;;;;;18.70;1.00;;;;;;4937708;29;19962;-54
2023/10/30 03:00:25;;;;;;;;;;;18.70;1.00;;;;;;4954850;29;20377;-49
2023/10/30 03:02:52;;;;;;;;;;;18.70;1.00;;;;;;4955006;29;20415;-54
2023/10/30 03:05:19;;;;;;;;;;;18.70;1.00;;;;;;4937255;29;19927;-55
2023/10/30 03:07:45;;;;;;;;;;;18.60;1.00;;;;;;4937671;29;20017;-53
2023/10/30 03:10:12;;;;;;;;;;;18.60;1.00;;;;;;4954659;29;20344;-55
2023/10/30 03:12:39;;;;;;;;;;;18.60;1.00;;;;;;4937525;29;19926;-52
2023/10/30 03:15:06;;;;;;;;;;;18.60;1.00;;;;;;4937248;29;20391;-50
2023/10/30 03:17:33;;;;;;;;;;;18.60;1.00;;;;;;4937686;29;19933;-54
2023/10/30 03:20:00;;;;;;;;;;;18.60;1.00;;;;;;4937095;29;19927;-52
2023/10/30 03:22:27;;;;;;;;;;;18.60;1.00;;;;;;4954593;29;20025;-55
2023/10/30 03:24:53;;;;;;;;;;;18.60;1.00;;;;;;4937217;29;20022;-55
2023/10/30 03:27:20;;;;;;;;;;;18.60;1.00;;;;;;4937297;29;20396;-54
2023/10/30 03:29:47;;;;;;;;;;;18.60;1.00;;;;;;4954734;29;19933;-50
2023/10/30 03:32:14;;;;;;;;;;;18.50;1.00;;;;;;4937107;29;19931;-52
2023/10/30 03:34:40;;;;;;;;;;;18.50;1.00;;;;;;4937436;29;20357;-50
2023/10/30 03:37:07;;;;;;;;;;;18.50;1.00;;;;;;4937319;29;19933;-55
2023/10/30 03:39:34;;;;;;;;;;;18.50;1.00;;;;;;4936990;29;19948;-50
2023/10/30 03:42:01;;;;;;;;;;;18.50;1.00;;;;;;4954246;29;19930;-51
2023/10/30 03:44:29;;;;;;;;;;;18.50;1.00;;;;;;4954198;29;19933;-51
2023/10/30 03:46:55;;;;;;;;;;;18.50;1.00;;;;;;4954413;29;20020;-55
2023/10/30 03:49:23;;;;;;;;;;;18.50;1.00;;;;;;4954009;28;20324;-50
2023/10/30 03:51:51;;;;;;;;;;;18.50;1.00;;;;;;4938220;29;19927;-54
2023/10/30 03:54:17;;;;;;;;;;;18.50;1.00;;;;;;4958055;29;19927;-54
2023/10/30 03:56:44;;;;;;;;;;;18.50;1.00;;;;;;4958248;29;19937;-54
2023/10/30 03:59:15;;;;;;;;;;;18.50;1.00;;;;;;4957453;29;20079;-50
2023/10/30 04:01:42;;;;;;;;;;;18.50;1.00;;;;;;4958346;29;20301;-51
2023/10/30 04:04:08;;;;;;;;;;;18.40;1.00;;;;;;4957928;29;19927;-55
2023/10/30 04:06:35;;;;;;;;;;;18.40;1.00;;;;;;4957906;29;20383;-49
2023/10/30 04:09:03;;;;;;;;;;;18.40;1.00;;;;;;4958026;29;20005;-53
2023/10/30 04:11:30;;;;;;;;;;;18.40;1.00;;;;;;4957973;29;19933;-55
2023/10/30 04:13:57;;;;;;;;;;;18.40;1.00;;;;;;4957792;29;19932;-55
2023/10/30 04:16:24;;;;;;;;;;;18.40;1.00;;;;;;4957883;28;19936;-55
2023/10/30 04:18:50;;;;;;;;;;;18.40;1.00;;;;;;4957909;29;20337;-55
2023/10/30 04:21:17;;;;;;;;;;;18.40;1.00;;;;;;4957576;29;20024;-55
2023/10/30 04:23:44;;;;;;;;;;;18.40;1.00;;;;;;4957532;29;19973;-54
2023/10/30 04:26:11;;;;;;;;;;;18.40;1.00;;;;;;4957641;29;20352;-50
2023/10/30 04:28:38;;;;;;;;;;;18.40;1.00;;;;;;4957533;29;20017;-50
2023/10/30 04:31:06;;;;;;;;;;;18.40;1.00;;;;;;4957422;29;19986;-54
2023/10/30 04:33:33;;;;;;;;;;;18.40;1.00;;;;;;4957466;29;20013;-54
2023/10/30 04:36:03;;;;;;;;;;;18.40;1.00;;;;;;4957661;29;19957;-53
2023/10/30 04:38:33;;;;;;;;;;;18.40;1.00;;;;;;4949597;29;19931;-52
2023/10/30 04:41:06;;;;;;;;;;;18.30;1.00;;;;;;4957392;29;19927;-55
2023/10/30 04:43:33;;;;;;;;;;;18.30;1.00;;;;;;4957277;29;20039;-50
2023/10/30 04:46:00;;;;;;;;;;;18.30;1.00;;;;;;4957555;29;19926;-53
2023/10/30 04:48:30;;;;;;;;;;;18.30;1.00;;;;;;4957310;29;19953;-55
2023/10/30 04:50:57;;;;;;;;;;;18.30;1.00;;;;;;4957258;29;19962;-55
2023/10/30 04:53:23;;;;;;;;;;;18.30;1.00;;;;;;4957200;28;20456;-54
2023/10/30 04:55:50;;;;;;;;;;;18.30;1.00;;;;;;4956890;29;19933;-55
2023/10/30 04:58:17;;;;;;;;;;;18.30;1.00;;;;;;4957248;29;20017;-55
2023/10/30 05:00:45;;;;;;;;;;;18.30;1.00;;;;;;4957007;29;20017;-50
2023/10/30 05:03:12;;;;;;;;;;;18.30;1.00;;;;;;4956682;28;20391;-55
2023/10/30 05:05:38;;;;;;;;;;;18.30;1.00;;;;;;4956944;29;19934;-55
2023/10/30 05:08:05;;;;;;;;;;;18.30;1.00;;;;;;4957113;29;19933;-50
2023/10/30 05:10:32;;;;;;;;;;;18.30;1.00;;;;;;4956679;29;19962;-54
2023/10/30 05:12:59;;;;;;;;;;;18.20;1.00;;;;;;4957017;29;19934;-55
2023/10/30 05:15:26;;;;;;;;;;;18.20;1.00;;;;;;4956742;29;20320;-54
2023/10/30 05:17:52;;;;;;;;;;;18.20;1.00;;;;;;4956898;29;19926;-55
2023/10/30 05:20:19;;;;;;;;;;;18.20;1.00;;;;;;4956679;29;19977;-53
2023/10/30 05:22:46;;;;;;;;;;;18.20;1.00;;;;;;4956708;29;20376;-55
2023/10/30 05:25:12;;;;;;;;;;;18.20;1.00;;;;;;4956424;28;19930;-55
2023/10/30 05:27:39;;;;;;;;;;;18.20;1.00;;;;;;4956558;29;19933;-55
2023/10/30 05:30:06;;;;;;;;;;;18.20;1.00;;;;;;4955634;29;19930;-53
2023/10/30 05:32:33;;;;;;;;;;;18.20;1.00;;;;;;4954099;29;19926;-55
2023/10/30 05:35:00;;;;;;;;;;;18.20;1.00;;;;;;4956367;29;19997;-55
2023/10/30 05:37:26;;;;;;;;;;;18.20;1.00;;;;;;4956201;29;19982;-55
2023/10/30 05:39:53;;;;;;;;;;;18.20;1.00;;;;;;4956249;29;19930;-54
2023/10/30 05:42:20;;;;;;;;;;;18.20;1.00;;;;;;4956346;29;19926;-52
2023/10/30 05:44:46;;;;;;;;;;;18.10;1.00;;;;;;4956027;29;19930;-55
2023/10/30 05:47:13;;;;;;;;;;;18.10;1.00;;;;;;4956247;28;20021;-55
2023/10/30 05:49:40;;;;;;;;;;;18.10;1.00;;;;;;4947319;29;19933;-55
2023/10/30 05:52:08;;;;;;;;;;;18.10;1.00;;;;;;4948860;29;19926;-52
2023/10/30 05:54:35;;;;;;;;;;;18.10;1.00;;;;;;4954640;29;19927;-52
2023/10/30 05:57:02;;;;;;;;;;;18.10;1.00;;;;;;4956170;29;19932;-55
2023/10/30 05:59:28;;;;;;;;;;;18.10;1.00;;;;;;4955885;29;19926;-55
2023/10/30 06:01:55;;;;;;;;;;;18.10;1.00;;;;;;4947778;28;19926;-55
2023/10/30 06:04:22;;;;;;;;;;;18.10;1.00;;;;;;4951546;29;19926;-55
2023/10/30 06:06:49;;;;;;;;;;;18.10;1.00;;;;;;4955896;29;19931;-53
2023/10/30 06:09:15;;;;;;;;;;;18.10;1.00;;;;;;4951238;29;19942;-50
2023/10/30 06:11:46;;;;;;;;;;;18.10;1.00;;;;;;4954338;29;19978;-51
2023/10/30 06:14:12;;;;;;;;;;;18.10;1.00;;;;;;4955371;29;20412;-51
2023/10/30 06:16:39;;;;;;;;;;;18.00;1.00;;;;;;4954786;28;19948;-53
2023/10/30 06:19:06;;;;;;;;;;;18.00;1.00;;;;;;4952310;29;19927;-54
2023/10/30 06:21:34;;;;;;;;;;;18.00;1.00;;;;;;4953736;29;19930;-53
2023/10/30 06:24:01;;;;;;;;;;;18.00;1.00;;;;;;4954942;28;19981;-54
2023/10/30 06:26:27;;;;;;;;;;;18.10;1.00;;;;;;4955053;29;20312;-54
2023/10/30 06:28:55;;;;;;;;;;;18.10;1.00;;;;;;4954970;28;19926;-54
2023/10/30 06:31:22;;;;;;;;;;;18.10;1.00;;;;;;4955036;29;20207;-52
2023/10/30 06:33:49;;;;;;;;;;;18.10;1.00;;;;;;4954746;29;19933;-55
2023/10/30 06:36:15;;;;;;;;;;;18.00;1.00;;;;;;4954737;29;19926;-55
2023/10/30 06:38:42;;;;;;;;;;;18.00;1.00;;;;;;4954906;29;19926;-55
2023/10/30 06:41:09;;;;;;;;;;;18.10;1.00;;;;;;4948066;29;19974;-54
2023/10/30 06:43:36;;;;;;;;;;;18.00;1.00;;;;;;4953658;29;19933;-49
2023/10/30 06:46:03;;;;;;;;;;;18.00;1.00;;;;;;4950466;29;19969;-53
2023/10/30 06:48:30;;;;;;;;;;;18.00;1.00;;;;;;4954812;29;19930;-53
2023/10/30 06:50:57;;;;;;;;;;;18.00;1.00;;;;;;4954862;29;20415;-55
2023/10/30 06:53:25;;;;;;;;;;;18.00;1.00;;;;;;4954924;29;20400;-53
2023/10/30 06:55:51;;;;;;;;;;;18.00;1.00;;;;;;4954856;29;20245;-53
2023/10/30 06:58:18;;;;;;;;;;;18.10;1.00;;;;;;4954927;29;19937;-55
2023/10/30 07:00:45;;;;;;;;;;;18.00;1.00;;;;;;4954694;29;20400;-51
2023/10/30 07:03:12;;;;;;;;;;;18.00;1.00;;;;;;4954897;29;19993;-51
2023/10/30 07:05:39;;;;;;;;;;;18.00;1.00;;;;;;4954537;29;19926;-53
2023/10/30 07:08:05;;;;;;;;;;;18.00;1.00;;;;;;4954796;29;19930;-53
2023/10/30 07:10:32;;;;;;;;;;;18.00;1.00;;;;;;4954607;28;19934;-55
2023/10/30 07:12:59;;;;;;;;;;;18.00;1.00;;;;;;4954724;29;20001;-51
2023/10/30 07:15:26;;;;;;;;;;;18.00;1.00;;;;;;4954240;29;19927;-55
2023/10/30 07:17:54;;;;;;;;;;;18.00;1.00;;;;;;4951099;29;20138;-53
2023/10/30 07:20:21;;;;;;;;;;;18.00;1.00;;;;;;4952676;29;19958;-51
2023/10/30 07:22:48;;;;;;;;;;;17.90;1.00;;;;;;4948673;29;20420;-51
2023/10/30 07:25:15;;;;;;;;;;;18.00;1.00;;;;;;4953838;29;19928;-54
2023/10/30 07:27:41;;;;;;;;;;;18.00;1.00;;;;;;4954101;28;20002;-51
2023/10/30 07:30:09;;;;;;;;;;;17.90;1.00;;;;;;4954258;29;20356;-53
2023/10/30 07:32:35;;;;;;;;;;;17.90;1.00;;;;;;4950005;29;19927;-53
2023/10/30 07:35:03;;;;;;;;;;;17.90;1.00;;;;;;4954179;29;20388;-55
2023/10/30 07:37:30;;;;;;;;;;;17.90;1.00;;;;;;4954222;29;19927;-55
2023/10/30 07:39:56;;;;;;;;;;;17.90;1.00;;;;;;4954245;29;20266;-52
2023/10/30 07:42:23;;;;;;;;;;;17.90;1.00;;;;;;4954010;29;20017;-55
2023/10/30 07:44:50;;;;;;;;;;;17.90;1.00;;;;;;4953880;29;19997;-55
2023/10/30 07:47:17;;;;;;;;;;;17.90;1.00;;;;;;4954144;29;20344;-54
2023/10/30 07:49:56;;;;;;;;;;;17.90;1.00;;;;;;4947403;29;20400;-55
2023/10/30 07:52:23;;;;;;;;;;;17.90;1.00;;;;;;4953935;29;20365;-53
2023/10/30 07:54:50;;;;;;;;;;;17.90;1.00;;;;;;4954006;28;19926;-53
2023/10/30 07:57:17;;;;;;;;;;;17.90;1.00;;;;;;4954166;29;20388;-54
2023/10/30 07:59:44;;;;;;;;;;;17.90;1.00;;;;;;4953953;28;19961;-55
2023/10/30 08:02:10;;;;;;;;;;;17.90;1.00;;;;;;4957554;28;19926;-54
2023/10/30 08:04:37;;;;;;;;;;;17.90;1.00;;;;;;4954011;29;19934;-55
2023/10/30 08:07:04;;;;;;;;;;;17.90;1.00;;;;;;4954012;29;19932;-55
2023/10/30 08:09:31;;;;;;;;;;;17.90;1.00;;;;;;4953720;29;19970;-53
2023/10/30 08:11:57;;;;;;;;;;;17.90;1.00;;;;;;4954052;29;19926;-55
2023/10/30 08:14:24;;;;;;;;;;;17.90;1.00;;;;;;4953781;29;20388;-53
2023/10/30 08:16:51;;;;;;;;;;;17.90;1.00;;;;;;4953959;29;19926;-53
2023/10/30 08:19:17;;;;;;;;;;;17.90;1.00;;;;;;4953953;29;19990;-53
2023/10/30 08:21:44;;;;;;;;;;;17.90;1.00;;;;;;4953721;29;20405;-51
2023/10/30 08:24:11;;;;;;;;;;;17.90;1.00;;;;;;4953733;29;19927;-55
2023/10/30 08:26:38;;;;;;;;;;;17.90;1.00;;;;;;4953799;29;19934;-54
2023/10/30 08:29:04;;;;;;;;;;;17.90;1.00;;;;;;4954215;29;19930;-51
2023/10/30 08:31:31;;;;;;;;;;;17.80;1.00;;;;;;4953847;29;19985;-53
2023/10/30 08:34:00;;;;;;;;;;;17.80;1.00;;;;;;4953658;29;19927;-51
2023/10/30 08:36:28;;;;;;;;;;;17.80;1.00;;;;;;4953757;29;20009;-51
2023/10/30 08:38:54;;;;;;;;;;;17.90;1.00;;;;;;4954938;28;20065;-50
2023/10/30 08:41:22;;;;;;;;;;;17.90;1.00;;;;;;4957203;29;19989;-54
2023/10/30 08:43:49;;;;;;;;;;;17.80;1.00;;;;;;4957178;29;19949;-55
2023/10/30 08:46:19;;;;;;;;;;;17.80;1.00;;;;;;4957384;29;20432;-55
2023/10/30 08:48:46;;;;;;;;;;;17.80;1.00;;;;;;4957249;29;20336;-55
2023/10/30 08:51:13;;;;;;;;;;;17.80;1.00;;;;;;4956943;29;20313;-55
2023/10/30 08:53:40;;;;;;;;;;;17.90;1.00;;;;;;4956980;29;19933;-53
2023/10/30 08:56:07;;;;;;;;;;;17.90;1.00;;;;;;4957176;28;19989;-53
2023/10/30 08:58:33;;;;;;;;;;;17.80;1.00;;;;;;4957114;29;19934;-53
2023/10/30 09:01:00;;;;;;;;;;;17.90;1.00;;;;;;4956849;29;19934;-55
2023/10/30 09:03:27;;;;;;;;;;;17.80;1.00;;;;;;4957000;29;19949;-52
2023/10/30 09:05:54;;;;;;;;;;;17.80;1.00;;;;;;4956714;28;19958;-53
2023/10/30 09:08:21;;;;;;;;;;;17.80;1.00;;;;;;4956910;29;19927;-54
2023/10/30 09:10:51;;;;;;;;;;;17.80;1.00;;;;;;4956760;29;20017;-53
2023/10/30 09:13:18;;;;;;;;;;;17.80;1.00;;;;;;4956965;29;19933;-55
2023/10/30 09:15:44;;;;;;;;;;;17.80;1.00;;;;;;4956499;29;19932;-55
2023/10/30 09:18:11;;;;;;;;;;;17.80;1.00;;;;;;4956649;29;19926;-55
2023/10/30 09:20:38;;;;;;;;;;;17.80;1.00;;;;;;4956421;29;19926;-54
2023/10/30 09:23:05;;;;;;;;;;;17.80;1.00;;;;;;4956657;29;19933;-54
2023/10/30 09:25:31;;;;;;;;;;;17.80;1.00;;;;;;4956386;29;19986;-55
2023/10/30 09:27:58;;;;;;;;;;;17.80;1.00;;;;;;4956598;29;20010;-54
2023/10/30 09:30:30;;;;;;;;;;;17.80;1.00;;;;;;4956524;29;19957;-55
2023/10/30 09:32:58;;;;;;;;;;;17.80;1.00;;;;;;4931782;29;19926;-55
2023/10/30 09:35:29;;;;;;;;;;;17.80;1.00;;;;;;4956179;29;19927;-55
2023/10/30 09:37:56;;;;;;;;;;;17.80;1.00;;;;;;4956441;29;19933;-54
2023/10/30 09:40:26;;;;;;;;;;;17.80;1.00;;;;;;4956286;29;20377;-51
2023/10/30 09:42:55;;;;;;;;;;;17.80;1.00;;;;;;4956296;29;19926;-55
2023/10/30 09:45:23;;;;;;;;;;;17.80;1.00;;;;;;4956012;29;19927;-51
2023/10/30 09:47:54;;;;;;;;;;;17.80;1.00;;;;;;4956582;29;19926;-52
2023/10/30 09:50:21;;;;;;;;;;;17.80;1.00;;;;;;4955998;28;19926;-52
2023/10/30 09:52:50;;;;;;;;;;;17.80;1.00;;;;;;4956244;29;20282;-53
2023/10/30 09:55:18;;;;;;;;;;;17.80;1.00;;;;;;4938705;29;19933;-52
2023/10/30 09:57:48;;;;;;;;;;;17.80;1.00;;;;;;4956135;29;19961;-54
2023/10/30 10:00:16;;;;;;;;;;;17.90;1.00;;;;;;4956226;29;19927;-55
2023/10/30 10:02:43;;;;;;;;;;;17.90;1.00;;;;;;4955907;29;20388;-53
2023/10/30 10:05:10;;;;;;;;;;;17.90;1.00;;;;;;4955723;29;20436;-55
2023/10/30 10:07:37;;;;;;;;;;;17.90;1.00;;;;;;4955686;29;20385;-55
2023/10/30 10:10:06;;;;;;;;;;;17.90;1.00;;;;;;4955880;28;20292;-55
2023/10/30 10:12:36;;;;;;;;;;;17.90;1.00;;;;;;4955793;29;19950;-55
2023/10/30 10:15:06;;;;;;;;;;;17.90;1.00;;;;;;4955425;29;19926;-55
2023/10/30 10:17:44;;;;;;;;;;;17.90;1.00;;;;;;4955778;29;19998;-53
2023/10/30 10:20:12;;;;;;;;;;;17.90;1.00;;;;;;4956014;29;20316;-55
2023/10/30 10:22:39;;;;;;;;;;;17.90;1.00;;;;;;4955641;29;19990;-54
2023/10/30 10:25:10;;;;;;;;;;;17.90;1.00;;;;;;4954165;29;19926;-55
2023/10/30 10:27:38;;;;;;;;;;;17.90;1.00;;;;;;4951572;29;19962;-53
2023/10/30 10:30:06;;;;;;;;;;;17.90;1.00;;;;;;4955295;29;20381;-50
2023/10/30 10:32:33;;;;;;;;;;;17.90;1.00;;;;;;4948788;29;19986;-53
2023/10/30 10:35:05;;;;;;;;;;;17.90;1.00;;;;;;4954617;29;19933;-51
2023/10/30 10:37:33;;;;;;;;;;;17.90;1.00;;;;;;4955343;29;19927;-54
2023/10/30 10:40:01;;;;;;;;;;;17.90;1.00;;;;;;4955041;29;20304;-52
2023/10/30 10:42:28;;;;;;;;;;;17.90;1.00;;;;;;4953626;29;19974;-52
2023/10/30 10:44:55;;;;;;;;;;;17.90;1.00;;;;;;4954804;29;19926;-55
2023/10/30 10:47:22;;;;;;;;;;;18.00;1.00;;;;;;4955075;29;19930;-54
2023/10/30 10:49:49;;;;;;;;;;;18.00;1.00;;;;;;4952591;29;20296;-50
2023/10/30 10:52:17;;;;;;;;;;;17.90;1.00;;;;;;4954787;29;20336;-55
2023/10/30 10:54:44;;;;;;;;;;;18.00;1.00;;;;;;4954407;23;19927;-49
2023/10/30 10:57:14;;;;;;;;;;;18.00;1.00;;;;;;4935827;29;19926;-47
2023/10/30 10:59:44;;;;;;;;;;;18.00;1.00;;;;;;4935591;29;19966;-47
2023/10/30 11:02:20;;;;;;;;;;;18.00;1.00;;;;;;4934921;29;19927;-47
2023/10/30 11:04:48;;;;;;;;;;;18.00;1.00;;;;;;4935403;29;19934;-46
2023/10/30 11:07:16;;;;;;;;;;;18.00;1.00;;;;;;4933524;29;19931;-46
2023/10/30 11:09:47;;;;;;;;;;;18.00;1.00;;;;;;4934877;29;20407;-48
2023/10/30 11:12:22;;;;;;;;;;;18.00;1.00;;;;;;4935543;29;19927;-48
2023/10/30 11:14:58;;;;;;;;;;;18.00;1.00;;;;;;4935301;29;19933;-49
2023/10/30 11:17:26;;;;;;;;;;;18.00;1.00;;;;;;4935767;29;19948;-49
2023/10/30 11:20:03;;;;;;;;;;;18.00;1.00;;;;;;4935337;29;19983;-47
2023/10/30 11:22:40;;;;;;;;;;;18.00;1.00;;;;;;4935170;29;19931;-47
2023/10/30 11:25:26;;;;;;;;;;;18.00;1.00;;;;;;4918344;29;19985;-50
2023/10/30 11:27:53;;;;;;;;;;;18.00;1.00;;;;;;4935218;29;19974;-47
2023/10/30 11:30:22;;;;;;;;;;;18.00;1.00;;;;;;4935088;29;20026;-49
2023/10/30 11:32:49;;;;;;;;;;;18.00;1.00;;;;;;4935043;29;19931;-47
2023/10/30 11:35:18;;;;;;;;;;;18.00;1.00;;;;;;4934998;29;19949;-48
2023/10/30 11:37:45;;;;;;;;;;;18.00;1.00;;;;;;4935190;29;19926;-47
2023/10/30 11:40:14;;;;;;;;;;;18.00;1.00;;;;;;4931446;29;19931;-47
2023/10/30 11:42:44;;;;;;;;;;;18.00;1.00;;;;;;4932349;29;19931;-52
2023/10/30 11:45:22;;;;;;;;;;;18.00;1.00;;;;;;4927903;29;20021;-49
2023/10/30 11:47:56;;;;;;;;;;;18.00;1.00;;;;;;4934544;29;19934;-49
2023/10/30 11:50:27;;;;;;;;;;;18.00;1.00;;;;;;4933770;29;19966;-48
2023/10/30 11:52:55;;;;;;;;;;;18.00;1.00;;;;;;4916297;29;19927;-50
2023/10/30 11:55:22;;;;;;;;;;;18.00;1.00;;;;;;4930993;29;20346;-53
2023/10/30 11:57:49;;;;;;;;;;;18.00;1.00;;;;;;4932296;29;19927;-48
2023/10/30 12:00:16;;;;;;;;;;;18.00;1.00;;;;;;4934860;29;19926;-47
2023/10/30 12:02:44;;;;;;;;;;;18.00;1.00;;;;;;4934844;29;19933;-49
2023/10/30 12:05:11;;;;;;;;;;;18.00;1.00;;;;;;4934814;29;19981;-47
2023/10/30 12:07:38;;;;;;;;;;;18.00;1.00;;;;;;4935289;29;19931;-47
2023/10/30 12:10:05;;;;;;;;;;;18.00;1.00;;;;;;4933870;29;19994;-47
2023/10/30 12:12:32;;;;;;;;;;;18.00;1.00;;;;;;4934596;29;19949;-52
2023/10/30 12:15:00;;;;;;;;;;;18.00;1.00;;;;;;4937009;29;20297;-48
2023/10/30 12:17:26;;;;;;;;;;;18.00;1.00;;;;;;4935668;29;19933;-47
2023/10/30 12:19:53;;;;;;;;;;;18.00;1.00;;;;;;4938643;29;20013;-52
2023/10/30 12:22:21;;;;;;;;;;;18.10;1.00;;;;;;4939703;29;20270;-52
2023/10/30 12:24:48;;;;;;;;;;;18.00;1.00;;;;;;4936380;29;19927;-47
2023/10/30 12:27:19;;;;;;;;;;;18.10;1.00;;;;;;4938163;29;19926;-47
2023/10/30 12:29:46;;;;;;;;;;;18.00;1.00;;;;;;4932646;29;19935;-46
2023/10/30 12:32:12;;;;;;;;;;;18.00;1.00;;;;;;4932985;29;20316;-47
2023/10/30 12:34:39;;;;;;;;;;;18.10;1.00;;;;;;4937434;29;20316;-48
2023/10/30 12:37:16;;;;;;;;;;;18.00;1.00;;;;;;4934730;29;19937;-47
2023/10/30 12:39:58;;;;;;;;;;;18.10;1.00;;;;;;4936274;29;19927;-49
2023/10/30 12:42:26;;;;;;;;;;;18.10;1.00;;;;;;4938290;29;20393;-48
2023/10/30 12:44:52;;;;;;;;;;;18.10;1.00;;;;;;4934504;29;20301;-46
2023/10/30 12:47:19;;;;;;;;;;;18.10;1.00;;;;;;4935091;29;19927;-47
2023/10/30 12:49:46;;;;;;;;;;;18.10;1.00;;;;;;4937761;29;19927;-48
2023/10/30 12:52:13;;;;;;;;;;;18.10;1.00;;;;;;4937976;29;20007;-48
2023/10/30 12:54:40;;;;;;;;;;;18.10;1.00;;;;;;4937792;29;19931;-47
2023/10/30 12:57:07;;;;;;;;;;;18.10;1.00;;;;;;4921026;29;19927;-49
2023/10/30 12:59:34;;;;;;;;;;;18.10;1.00;;;;;;4927322;29;19937;-47
2023/10/30 13:02:01;;;;;;;;;;;18.10;1.00;;;;;;4931194;29;19935;-47
2023/10/30 13:04:28;;;;;;;;;;;18.10;1.00;;;;;;4935075;29;19927;-47
2023/10/30 13:06:55;;;;;;;;;;;18.10;1.00;;;;;;4912213;29;19926;-46
2023/10/30 13:09:23;;;;;;;;;;;18.10;1.00;;;;;;4929232;29;20292;-49
2023/10/30 13:11:51;;;;;;;;;;;18.10;1.00;;;;;;4930184;29;20357;-48
2023/10/30 13:14:18;;;;;;;;;;;18.10;1.00;;;;;;4936558;29;20375;-48
2023/10/30 13:16:45;;;;;;;;;;;18.10;1.00;;;;;;4937458;29;19933;-48
2023/10/30 13:19:12;;;;;;;;;;;18.10;1.00;;;;;;4920362;29;19935;-46
2023/10/30 13:21:38;;;;;;;;;;;18.10;1.00;;;;;;4937449;29;20033;-51
2023/10/30 13:24:07;;;;;;;;;;;18.10;1.00;;;;;;4936831;29;19926;-51
2023/10/30 13:26:34;;;;;;;;;;;18.10;1.00;;;;;;4937463;29;20341;-50
2023/10/30 13:29:01;;;;;;;;;;;18.10;1.00;;;;;;4938514;29;19933;-49
2023/10/30 13:31:27;;;;;;;;;;;18.10;1.00;;;;;;4943116;29;20397;-50
2023/10/30 13:33:54;;;;;;;;;;;18.10;1.00;;;;;;4937112;29;19927;-50
2023/10/30 13:36:21;;;;;;;;;;;18.10;1.00;;;;;;4945234;29;19938;-49
2023/10/30 13:38:48;;;;;;;;;;;18.10;1.00;;;;;;4937121;29;19933;-46
2023/10/30 13:41:15;;;;;;;;;;;18.10;1.00;;;;;;4936976;29;20337;-49
2023/10/30 13:43:42;;;;;;;;;;;18.10;1.00;;;;;;4936913;29;19969;-50
2023/10/30 13:46:09;;;;;;;;;;;18.10;1.00;;;;;;4937055;29;20018;-51
2023/10/30 13:48:35;;;;;;;;;;;18.10;1.00;;;;;;4940832;29;19927;-50
2023/10/30 13:51:02;;;;;;;;;;;18.10;1.00;;;;;;4937265;29;19955;-49
2023/10/30 13:53:29;;;;;;;;;;;18.10;1.00;;;;;;4936820;29;20017;-49
2023/10/30 13:55:56;;;;;;;;;;;18.10;1.00;;;;;;4936863;29;19927;-48
2023/10/30 13:58:23;;;;;;;;;;;18.10;1.00;;;;;;4936862;29;19950;-49
2023/10/30 14:00:49;;;;;;;;;;;18.10;1.00;;;;;;4932744;29;19927;-49
2023/10/30 14:03:16;;;;;;;;;;;18.10;1.00;;;;;;4930326;29;19926;-49
2023/10/30 14:05:43;;;;;;;;;;;18.10;1.00;;;;;;4933624;29;19937;-47
2023/10/30 14:08:10;;;;;;;;;;;18.10;1.00;;;;;;4936165;29;19927;-47
2023/10/30 14:10:36;;;;;;;;;;;18.10;1.00;;;;;;4931690;29;19927;-50
2023/10/30 14:13:03;;;;;;;;;;;18.10;1.00;;;;;;4930771;29;19934;-48
2023/10/30 14:15:30;;;;;;;;;;;18.10;1.00;;;;;;4927962;29;19926;-49
2023/10/30 14:17:57;;;;;;;;;;;18.10;1.00;;;;;;4926774;29;19927;-49
2023/10/30 14:20:23;;;;;;;;;;;18.10;1.00;;;;;;4936280;29;19930;-47
2023/10/30 14:22:50;;;;;;;;;;;18.10;1.00;;;;;;4936615;29;20209;-50
2023/10/30 14:25:17;;;;;;;;;;;18.10;1.00;;;;;;4936132;29;19935;-48
2023/10/30 14:27:44;;;;;;;;;;;18.10;1.00;;;;;;4936432;29;19949;-48
2023/10/30 14:30:10;;;;;;;;;;;18.10;1.00;;;;;;4936156;29;19934;-47
2023/10/30 14:32:38;;;;;;;;;;;18.10;1.00;;;;;;4936322;29;19926;-49